Time;durP1;ratioP1;P1;durP2;ratioP2;P2;SDS_P1;SDS_P2;PMS_P1;PMS_P2;Temp;Humidity;BMP_temperature;BMP_pressure;BME280_temperature;BME280_humidity;BME280_pressure;Samples;Min_cycle;Max_cycle;Signal;HPM_P1;HPM_P2
2022/12/26 00:02:08;;;;;;;7.57;5.70;;;;;;;18.71;48.62;100887.25;5044241;28;20033;-61
2022/12/26 00:04:33;;;;;;;5.80;5.03;;;;;;;18.69;48.48;100881.16;5044107;28;20029;-61
2022/12/26 00:06:58;;;;;;;7.15;5.35;;;;;;;18.70;48.48;100875.66;5044180;28;20025;-61
2022/12/26 00:09:24;;;;;;;6.35;4.63;;;;;;;18.69;48.77;100879.34;5043894;28;20033;-61
2022/12/26 00:11:49;;;;;;;6.13;4.40;;;;;;;18.66;48.31;100878.81;5044313;28;20017;-61
2022/12/26 00:14:15;;;;;;;5.50;4.40;;;;;;;18.68;48.43;100888.41;5043653;28;20089;-61
2022/12/26 00:16:42;;;;;;;6.15;5.28;;;;;;;18.67;48.42;100873.25;5043457;28;20463;-61
2022/12/26 00:19:08;;;;;;;6.43;4.80;;;;;;;18.68;48.51;100874.09;5043559;28;20036;-61
2022/12/26 00:21:34;;;;;;;6.22;4.72;;;;;;;18.67;48.76;100878.63;5044258;28;20037;-61
2022/12/26 00:23:59;;;;;;;5.35;4.15;;;;;;;18.66;48.76;100884.19;5048030;28;20045;-61
2022/12/26 00:26:28;;;;;;;5.38;4.30;;;;;;;18.67;48.43;100885.88;5047922;28;20029;-61
2022/12/26 00:28:54;;;;;;;5.55;4.40;;;;;;;18.63;48.51;100884.53;5047339;28;20029;-61
2022/12/26 00:31:22;;;;;;;6.13;4.43;;;;;;;18.66;48.37;100890.44;5048288;28;20065;-62
2022/12/26 00:33:48;;;;;;;5.75;4.53;;;;;;;18.64;48.37;100881.66;5047753;28;20030;-63
2022/12/26 00:36:18;;;;;;;5.22;4.25;;;;;;;18.65;48.37;100875.28;5046953;28;20028;-62
2022/12/26 00:38:44;;;;;;;4.97;3.97;;;;;;;18.64;48.34;100884.34;5047817;28;20062;-62
2022/12/26 00:41:11;;;;;;;5.95;4.07;;;;;;;18.63;48.71;100898.84;5047909;28;20087;-62
2022/12/26 00:43:37;;;;;;;5.68;4.50;;;;;;;18.62;48.54;100894.47;5047145;28;20033;-62
2022/12/26 00:46:03;;;;;;;6.60;4.32;;;;;;;18.64;48.63;100900.50;5047293;28;20026;-62
2022/12/26 00:48:28;;;;;;;5.40;4.18;;;;;;;18.61;48.41;100891.94;5046969;28;20046;-62
2022/12/26 00:50:54;;;;;;;6.25;4.50;;;;;;;18.62;48.39;100899.84;5047363;28;20033;-62
2022/12/26 00:53:20;;;;;;;5.20;4.50;;;;;;;18.60;48.65;100896.47;5046115;28;20048;-62
2022/12/26 00:55:45;;;;;;;5.75;4.32;;;;;;;18.57;48.37;100891.44;5047486;28;20080;-62
2022/12/26 00:58:11;;;;;;;4.88;3.88;;;;;;;18.56;48.32;100888.88;5047210;28;20546;-64
2022/12/26 01:00:36;;;;;;;5.82;4.47;;;;;;;18.56;48.37;100891.56;5047434;28;20037;-63
2022/12/26 01:03:02;;;;;;;5.72;3.95;;;;;;;18.61;48.47;100897.34;5047254;28;20030;-63
2022/12/26 01:05:27;;;;;;;5.75;4.50;;;;;;;18.60;48.32;100901.84;5047276;28;20025;-63
2022/12/26 01:07:52;;;;;;;5.25;4.03;;;;;;;18.56;48.42;100897.81;5047172;28;20511;-63
2022/12/26 01:10:18;;;;;;;6.32;4.68;;;;;;;18.59;48.55;100900.16;5047103;28;20030;-63
2022/12/26 01:12:43;;;;;;;4.55;3.55;;;;;;;18.59;48.70;100902.88;5046707;28;20036;-64
2022/12/26 01:15:09;;;;;;;4.82;4.00;;;;;;;18.55;48.52;100906.91;5047083;28;20026;-64
2022/12/26 01:17:34;;;;;;;5.13;3.70;;;;;;;18.58;48.47;100916.50;5046880;28;20025;-64
2022/12/26 01:19:59;;;;;;;4.93;3.70;;;;;;;18.57;48.32;100920.22;5046848;28;20021;-62
2022/12/26 01:22:26;;;;;;;6.00;4.45;;;;;;;18.57;48.22;100929.13;5046516;28;20063;-62
2022/12/26 01:24:55;;;;;;;6.43;4.05;;;;;;;18.57;48.32;100920.22;5046955;28;20030;-62
2022/12/26 01:27:21;;;;;;;5.13;3.88;;;;;;;18.55;48.62;100916.81;5046732;28;20025;-62
2022/12/26 01:29:47;;;;;;;4.75;3.97;;;;;;;18.55;48.52;100927.59;5046426;28;20055;-62
2022/12/26 01:32:12;;;;;;;4.22;3.50;;;;;;;18.55;48.52;100931.13;5047011;28;20025;-63
2022/12/26 01:34:37;;;;;;;4.65;3.63;;;;;;;18.55;48.26;100939.22;5045566;28;20032;-62
2022/12/26 01:37:03;;;;;;;5.22;3.65;;;;;;;18.54;48.26;100934.00;5046752;28;20037;-62
2022/12/26 01:39:28;;;;;;;5.00;3.70;;;;;;;18.54;48.17;100928.63;5046314;28;20017;-63
2022/12/26 01:41:53;;;;;;;5.97;4.45;;;;;;;18.47;48.33;100923.88;5046901;28;20041;-62
2022/12/26 01:45:16;;;;;;;5.03;3.58;;;;;;;18.52;48.48;100936.88;5046047;28;20053;-62
2022/12/26 01:47:57;;;;;;;4.70;4.05;;;;;;;18.52;48.27;100934.19;5024226;28;20045;-62
2022/12/26 01:50:46;;;;;;;4.05;3.05;;;;;;;18.51;48.26;100942.41;5027002;28;20047;-62
2022/12/26 01:53:20;;;;;;;4.60;3.63;;;;;;;18.51;48.22;100934.31;5043938;28;20060;-63
2022/12/26 01:55:57;;;;;;;5.75;4.20;;;;;;;18.51;48.69;100934.31;5043940;28;20041;-63
2022/12/26 01:58:27;;;;;;;5.55;3.63;;;;;;;18.49;48.50;100926.41;5032071;28;20041;-63
2022/12/26 02:00:53;;;;;;;4.88;3.45;;;;;;;18.48;48.59;100920.19;5004456;28;20034;-62
2022/12/26 02:06:02;;;;;;;5.30;3.70;;;;;;;18.48;48.29;100916.66;5004317;28;20041;-62
2022/12/26 02:08:31;;;;;;;3.97;3.47;;;;;;;18.43;48.56;100909.06;5004004;28;20034;-63
2022/12/26 02:11:00;;;;;;;4.35;3.30;;;;;;;18.45;48.26;100919.69;5003995;28;20038;-62
2022/12/26 02:13:28;;;;;;;3.85;3.40;;;;;;;18.39;48.33;100918.50;5003430;28;20459;-62
2022/12/26 02:15:53;;;;;;;3.97;3.17;;;;;;;18.44;48.29;100929.63;5003714;28;20607;-62
2022/12/26 02:18:18;;;;;;;4.20;3.45;;;;;;;18.44;48.22;100932.31;5013518;28;20041;-62
2022/12/26 02:21:10;;;;;;;4.05;3.00;;;;;;;18.44;48.25;100921.53;5039727;28;20120;-62
2022/12/26 02:24:05;;;;;;;4.32;3.53;;;;;;;18.33;48.32;100904.84;5055636;28;20029;-62
2022/12/26 02:26:49;;;;;;;4.85;3.67;;;;;;;18.43;48.47;100919.00;5045698;28;20021;-62
2022/12/26 02:29:36;;;;;;;4.57;3.55;;;;;;;18.42;48.46;100920.00;5044807;28;20814;-63
2022/12/26 02:32:16;;;;;;;4.22;3.50;;;;;;;18.42;48.33;100933.47;5045691;28;20033;-62
2022/12/26 02:35:07;;;;;;;4.47;3.60;;;;;;;18.41;48.41;100931.78;5045451;28;20018;-62
2022/12/26 02:37:48;;;;;;;4.47;3.30;;;;;;;18.39;48.43;100926.56;5042345;28;20041;-63
2022/12/26 02:40:23;;;;;;;6.18;3.53;;;;;;;18.38;48.26;100927.56;5044102;28;20040;-62
2022/12/26 02:42:59;;;;;;;3.97;3.33;;;;;;;18.38;48.31;100921.34;5044862;28;20044;-62
2022/12/26 02:48:35;;;;;;;3.55;2.95;;;;;;;18.37;48.49;100925.88;5045088;28;20060;-62
2022/12/26 03:14:28;;;;;;;3.67;3.03;;;;;;;18.24;48.32;100906.69;5043067;28;20056;-63
2022/12/26 03:20:00;;;;;;;3.13;2.67;;;;;;;18.31;48.34;100914.91;5044338;28;20125;-63
2022/12/26 03:22:50;;;;;;;3.08;2.72;;;;;;;18.30;48.32;100915.94;5044589;28;20033;-63
2022/12/26 03:28:08;;;;;;;3.58;2.97;;;;;;;18.29;48.46;100909.72;5044190;28;20060;-63
2022/12/26 03:30:49;;;;;;;3.92;3.20;;;;;;;18.18;48.40;100892.03;5043446;28;20029;-63
2022/12/26 03:36:05;;;;;;;3.72;3.22;;;;;;;18.28;48.19;100904.50;5042096;28;20104;-62
2022/12/26 03:38:54;;;;;;;3.40;2.92;;;;;;;18.28;48.55;100912.56;5042001;28;20064;-62
2022/12/26 04:19:53;;;;;;;3.67;3.10;;;;;;;18.19;48.31;100957.47;4968685;28;20061;-63
2022/12/26 04:45:04;;;;;;;3.65;3.13;;;;;;;18.11;48.17;100931.38;4949438;29;20038;-63
2022/12/26 04:47:30;;;;;;;2.90;2.60;;;;;;;18.15;48.13;100945.34;4962718;29;20030;-64
2022/12/26 04:50:11;;;;;;;3.53;2.80;;;;;;;18.14;48.02;100946.34;4999084;28;20054;-63
2022/12/26 04:55:22;;;;;;;3.85;2.80;;;;;;;18.15;48.18;100954.25;5036861;28;20037;-62
2022/12/26 04:57:47;;;;;;;3.38;2.78;;;;;;;18.14;48.08;100952.56;5026999;28;20025;-63
2022/12/26 05:00:13;;;;;;;2.78;2.55;;;;;;;18.12;48.36;100941.09;5042811;28;20120;-63
2022/12/26 05:11:07;;;;;;;2.42;2.20;;;;;;;18.14;48.25;100952.56;5015825;28;20041;-63
2022/12/26 05:13:32;;;;;;;2.92;2.60;;;;;;;18.13;48.10;100928.50;5046576;28;20028;-63
2022/12/26 05:29:37;;;;;;;3.05;2.25;;;;;;;18.10;48.28;100928.84;5045958;28;20047;-62
2022/12/26 05:32:03;;;;;;;2.40;2.20;;;;;;;18.10;48.41;100934.22;5045556;28;20065;-63
2022/12/26 05:34:28;;;;;;;2.92;2.50;;;;;;;18.09;48.28;100933.34;5046069;28;20017;-62
2022/12/26 05:36:55;;;;;;;2.50;2.30;;;;;;;18.09;48.27;100927.97;5046521;28;20031;-62
2022/12/26 05:39:21;;;;;;;3.22;2.53;;;;;;;18.09;48.14;100916.38;5046126;28;20025;-61
2022/12/26 05:41:46;;;;;;;3.25;2.70;;;;;;;18.09;48.44;100919.06;5044482;28;20035;-62
2022/12/26 05:44:11;;;;;;;2.30;2.05;;;;;;;18.09;48.07;100913.69;5044294;28;20044;-62
2022/12/26 05:46:37;;;;;;;2.95;2.65;;;;;;;18.10;48.30;100931.53;5045310;28;20034;-62
2022/12/26 05:49:04;;;;;;;2.83;2.60;;;;;;;18.10;48.23;100918.91;5045456;28;20054;-62
2022/12/26 05:51:29;;;;;;;2.72;2.40;;;;;;;18.10;48.43;100935.06;5044650;28;20021;-62
2022/12/26 05:53:54;;;;;;;2.70;2.50;;;;;;;18.10;48.27;100932.38;5045471;28;20040;-62
2022/12/26 05:56:20;;;;;;;3.03;2.72;;;;;;;18.11;48.38;100931.38;5045881;28;20045;-62
2022/12/26 05:58:45;;;;;;;2.78;2.50;;;;;;;18.06;48.56;100930.16;5044924;28;20107;-62
2022/12/26 06:01:14;;;;;;;2.67;2.33;;;;;;;18.14;48.25;100954.41;5045629;28;20037;-61
2022/12/26 06:03:42;;;;;;;3.00;2.45;;;;;;;18.08;48.51;100939.75;5043094;28;20032;-62
2022/12/26 06:06:08;;;;;;;3.38;2.70;;;;;;;18.14;48.51;100955.25;5041162;28;20033;-61
2022/12/26 06:08:34;;;;;;;2.40;2.20;;;;;;;18.15;48.44;100950.72;5040266;28;20026;-62
2022/12/26 06:11:07;;;;;;;3.08;2.33;;;;;;;18.15;48.68;100940.78;5045589;28;20028;-61
2022/12/26 06:13:33;;;;;;;2.90;2.60;;;;;;;18.16;48.30;100922.78;5042746;28;20028;-61
2022/12/26 06:15:58;;;;;;;2.85;2.20;;;;;;;18.15;48.60;100935.41;5034480;28;20026;-61
2022/12/26 06:18:24;;;;;;;3.22;2.60;;;;;;;18.12;48.66;100919.59;5044191;28;20029;-61
2022/12/26 06:20:50;;;;;;;3.67;2.40;;;;;;;18.19;48.59;100933.25;5045136;28;20025;-61
2022/12/26 06:23:15;;;;;;;2.50;2.30;;;;;;;18.20;48.56;100933.06;5044043;28;20025;-61
2022/12/26 06:25:40;;;;;;;2.42;2.22;;;;;;;18.21;48.90;100913.22;5041637;28;20033;-61
2022/12/26 06:28:06;;;;;;;2.55;2.30;;;;;;;18.23;48.95;100918.47;5044713;28;20060;-61
2022/12/26 06:30:31;;;;;;;2.58;2.28;;;;;;;18.23;48.89;100913.06;5044874;28;20026;-61
2022/12/26 06:32:56;;;;;;;3.30;2.63;;;;;;;18.24;48.89;100915.59;5044113;28;20025;-62
2022/12/26 06:35:22;;;;;;;2.30;2.10;;;;;;;18.26;48.87;100914.56;5044263;28;20044;-62
2022/12/26 06:37:47;;;;;;;3.13;2.10;;;;;;;18.22;49.13;100901.47;5044363;28;20029;-61
2022/12/26 06:40:12;;;;;;;2.92;2.63;;;;;;;18.27;49.13;100905.53;5044692;28;20021;-61
2022/12/26 06:42:37;;;;;;;3.22;2.20;;;;;;;18.27;49.27;100916.28;5043694;28;20029;-62
2022/12/26 06:45:03;;;;;;;2.47;2.28;;;;;;;18.27;49.16;100917.13;5043544;28;20044;-61
2022/12/26 06:47:28;;;;;;;2.53;2.10;;;;;;;18.24;49.04;100915.59;5044350;28;20028;-61
2022/12/26 06:49:54;;;;;;;2.20;2.00;;;;;;;18.27;49.12;100919.81;5044234;28;20072;-62
2022/12/26 06:52:19;;;;;;;2.38;1.95;;;;;;;18.27;49.19;100919.81;5045160;28;20112;-61
2022/12/26 06:54:44;;;;;;;2.08;1.90;;;;;;;18.27;49.17;100919.81;5044712;28;20045;-61
2022/12/26 06:57:10;;;;;;;2.15;1.95;;;;;;;18.27;48.97;100927.88;5060358;28;20100;-61
2022/12/26 06:59:35;;;;;;;2.97;2.20;;;;;;;18.26;49.35;100926.19;5043976;28;20048;-61
2022/12/26 07:02:00;;;;;;;3.58;2.30;;;;;;;18.28;49.17;100924.19;5059905;28;20617;-62
2022/12/26 07:04:25;;;;;;;2.50;2.25;;;;;;;18.29;49.32;100922.34;5044298;28;20075;-62
2022/12/26 07:06:51;;;;;;;2.65;2.05;;;;;;;18.29;49.35;100917.78;5044751;28;20060;-62
2022/12/26 07:09:17;;;;;;;2.20;1.70;;;;;;;18.31;49.10;100920.31;5044227;28;20026;-62
2022/12/26 07:11:48;;;;;;;5.60;2.22;;;;;;;18.31;49.31;100923.88;5044657;28;20174;-62
2022/12/26 07:14:14;;;;;;;2.40;2.00;;;;;;;18.13;49.37;100888.13;5043902;28;20512;-61
2022/12/26 07:16:42;;;;;;;2.50;2.08;;;;;;;18.31;49.23;100915.78;5043775;28;20029;-62
2022/12/26 07:19:09;;;;;;;3.03;2.10;;;;;;;18.28;49.24;100917.97;5044022;28;20169;-62
2022/12/26 07:21:35;;;;;;;1.90;1.70;;;;;;;18.33;49.70;100932.59;5043981;28;20060;-62
2022/12/26 07:24:00;;;;;;;1.95;1.70;;;;;;;18.32;49.16;100935.47;5044080;28;20029;-61
2022/12/26 07:26:25;;;;;;;3.05;1.70;;;;;;;18.32;49.44;100939.00;5043832;28;20067;-61
2022/12/26 07:28:58;;;;;;;2.08;1.73;;;;;;;18.25;49.28;100929.88;5043494;28;20381;-61
2022/12/26 07:31:23;;;;;;;1.95;1.75;;;;;;;18.32;49.16;100951.63;5043265;28;20021;-61
2022/12/26 07:33:51;;;;;;;1.95;1.75;;;;;;;18.32;49.28;100954.31;5043851;28;20097;-62
2022/12/26 07:36:17;;;;;;;2.15;1.95;;;;;;;18.32;49.05;100968.59;5044164;28;20016;-61
2022/12/26 07:38:43;;;;;;;3.65;1.90;;;;;;;18.32;49.43;100957.84;5043726;28;20013;-62
2022/12/26 07:43:52;;;;;;;2.80;1.85;;;;;;;18.37;49.22;100958.19;5041022;28;20099;-61
2022/12/26 07:46:17;;;;;;;2.15;1.95;;;;;;;18.36;49.22;100951.13;5043724;28;20021;-61
2022/12/26 07:48:43;;;;;;;2.65;1.88;;;;;;;18.37;49.06;100958.19;5043185;28;20036;-61
2022/12/26 07:51:08;;;;;;;3.00;1.90;;;;;;;18.37;49.25;100954.66;5043215;28;20033;-62
2022/12/26 07:53:33;;;;;;;1.65;1.55;;;;;;;18.31;49.16;100934.63;5043251;28;20044;-61
2022/12/26 07:55:59;;;;;;;3.63;1.90;;;;;;;18.33;48.92;100929.91;5043141;28;20048;-61
2022/12/26 07:58:24;;;;;;;3.05;1.95;;;;;;;18.39;49.04;100937.34;5042774;28;20486;-61
2022/12/26 08:00:49;;;;;;;2.00;1.63;;;;;;;18.39;48.93;100934.66;5042991;28;20037;-61
2022/12/26 08:03:14;;;;;;;1.88;1.77;;;;;;;18.40;48.92;100938.19;5044093;28;20044;-61
2022/12/26 08:05:43;;;;;;;2.17;1.65;;;;;;;18.40;49.15;100946.25;5043677;28;20025;-62
2022/12/26 08:08:08;;;;;;;1.73;1.63;;;;;;;18.40;48.80;100954.34;5043565;28;20036;-61
2022/12/26 08:10:34;;;;;;;2.00;1.63;;;;;;;18.40;48.91;100941.72;5043451;28;20025;-61
2022/12/26 08:12:59;;;;;;;1.88;1.50;;;;;;;18.40;48.87;100952.47;5043708;28;20021;-61
2022/12/26 08:15:24;;;;;;;1.65;1.55;;;;;;;18.42;48.88;100941.53;5042685;28;20081;-61
2022/12/26 08:17:49;;;;;;;2.45;1.90;;;;;;;18.42;48.74;100944.22;5043471;28;20417;-61
2022/12/26 08:20:15;;;;;;;2.28;1.60;;;;;;;18.42;48.78;100950.44;5042811;28;20026;-61
2022/12/26 08:22:40;;;;;;;1.80;1.50;;;;;;;18.42;48.76;100950.44;5043245;28;20048;-61
2022/12/26 08:25:06;;;;;;;1.50;1.38;;;;;;;18.42;48.73;100942.38;5043309;28;20422;-61
2022/12/26 08:27:31;;;;;;;2.13;1.40;;;;;;;18.44;48.89;100951.16;5043450;28;20053;-62
2022/12/26 08:29:56;;;;;;;2.10;1.63;;;;;;;18.46;48.77;100950.97;5041684;28;20041;-62
2022/12/26 08:32:21;;;;;;;2.38;1.60;;;;;;;18.45;48.74;100960.91;5043697;28;20374;-61
2022/12/26 08:34:47;;;;;;;2.40;1.40;;;;;;;18.45;49.00;100949.28;5043325;28;20075;-61
2022/12/26 08:37:12;;;;;;;1.90;1.38;;;;;;;18.45;48.94;100954.69;5043547;28;20013;-61
2022/12/26 08:39:37;;;;;;;1.23;1.13;;;;;;;18.26;48.71;100919.97;5043062;28;20029;-61
2022/12/26 08:42:03;;;;;;;1.67;1.45;;;;;;;18.47;48.84;100952.66;5043972;28;20029;-61
2022/12/26 08:44:28;;;;;;;1.65;1.50;;;;;;;18.48;48.57;100948.97;5046346;28;20033;-61
2022/12/26 08:46:53;;;;;;;1.77;1.42;;;;;;;18.47;48.66;100945.41;5046730;28;20022;-62
2022/12/26 08:49:19;;;;;;;2.22;1.30;;;;;;;18.48;48.60;100944.44;5047017;28;20533;-61
2022/12/26 08:51:44;;;;;;;1.98;1.60;;;;;;;18.50;48.60;100952.31;5045836;28;20033;-61
2022/12/26 08:54:09;;;;;;;1.60;1.40;;;;;;;18.53;48.97;100953.88;5046907;28;20030;-61
2022/12/26 08:56:34;;;;;;;2.22;1.63;;;;;;;18.55;48.83;100946.44;5046942;28;20096;-61
2022/12/26 08:59:00;;;;;;;1.70;1.40;;;;;;;18.54;49.04;100958.22;5046170;28;20034;-61
2022/12/26 09:01:27;;;;;;;1.75;1.42;;;;;;;18.54;48.51;100948.31;5047060;28;20022;-61
2022/12/26 09:04:00;;;;;;;2.05;1.30;;;;;;;18.54;48.77;100956.38;5046913;28;20017;-61
2022/12/26 09:06:26;;;;;;;2.42;1.50;;;;;;;18.54;48.77;100951.00;5046861;28;20486;-61
2022/12/26 09:08:51;;;;;;;1.65;1.42;;;;;;;18.55;48.62;100962.59;5046476;28;20047;-62
2022/12/26 09:11:22;;;;;;;1.42;1.33;;;;;;;18.54;48.54;100966.31;5046748;28;20023;-61
2022/12/26 09:13:47;;;;;;;1.70;1.30;;;;;;;18.54;48.83;100966.31;5046384;28;20047;-60
2022/12/26 09:16:18;;;;;;;1.83;1.48;;;;;;;18.54;48.90;100974.38;5046148;28;20450;-60
2022/12/26 09:18:45;;;;;;;1.63;1.52;;;;;;;18.53;48.61;100961.94;5046402;28;20052;-60
2022/12/26 09:21:12;;;;;;;1.85;1.40;;;;;;;18.54;48.59;100974.38;5046200;28;20093;-60
2022/12/26 09:23:38;;;;;;;2.10;1.42;;;;;;;18.55;48.75;100978.75;5046146;28;20395;-60
2022/12/26 09:26:11;;;;;;;3.72;2.30;;;;;;;18.57;48.55;100966.00;5045024;28;20030;-61
2022/12/26 09:28:37;;;;;;;2.10;1.50;;;;;;;18.57;48.54;100968.69;5042183;28;20427;-60
2022/12/26 09:31:06;;;;;;;1.95;1.50;;;;;;;18.56;48.94;100973.19;5045979;28;20050;-60
2022/12/26 09:33:32;;;;;;;1.42;1.10;;;;;;;18.57;48.68;100974.91;5046111;28;20033;-60
2022/12/26 09:35:58;;;;;;;1.50;1.40;;;;;;;18.54;48.79;100975.22;5046096;28;20057;-60
2022/12/26 09:38:23;;;;;;;1.33;1.23;;;;;;;18.51;48.84;100982.78;5045824;28;20041;-60
2022/12/26 09:40:54;;;;;;;1.85;1.23;;;;;;;18.57;48.77;100996.44;5045898;28;20029;-61
2022/12/26 09:43:28;;;;;;;1.65;1.20;;;;;;;18.57;48.74;101018.00;5045609;28;20018;-61
2022/12/26 09:46:05;;;;;;;2.10;1.30;;;;;;;18.58;48.65;101024.22;5043927;28;20112;-60
2022/12/26 09:48:36;;;;;;;3.10;1.40;;;;;;;18.57;48.69;101036.00;5043796;28;20041;-60
2022/12/26 09:51:02;;;;;;;1.98;1.30;;;;;;;18.56;48.64;101040.50;5045579;28;20063;-60
2022/12/26 09:53:33;;;;;;;2.08;1.30;;;;;;;18.56;49.01;101047.75;5046124;28;20025;-60
2022/12/26 09:56:01;;;;;;;1.58;1.23;;;;;;;18.57;48.85;101039.53;5044996;28;20093;-61
2022/12/26 09:58:26;;;;;;;2.83;1.48;;;;;;;18.58;48.48;101051.13;5044213;28;20047;-60
2022/12/26 10:01:06;;;;;;;2.63;1.25;;;;;;;18.58;48.68;101053.84;5045945;28;20026;-60
2022/12/26 10:03:39;;;;;;;1.33;1.17;;;;;;;18.58;48.53;101051.97;5046200;28;20029;-60
2022/12/26 10:06:19;;;;;;;1.40;1.13;;;;;;;18.54;48.66;101050.63;5044912;28;20082;-60
2022/12/26 10:09:07;;;;;;;2.35;1.40;;;;;;;18.61;48.48;101061.59;5057592;28;20037;-60
2022/12/26 10:11:39;;;;;;;1.45;1.20;;;;;;;18.61;48.59;101067.81;5061121;28;20029;-61
2022/12/26 10:14:20;;;;;;;1.67;1.25;;;;;;;18.60;48.54;101060.72;5043962;28;20032;-60
2022/12/26 10:16:48;;;;;;;1.80;1.08;;;;;;;18.61;48.39;101066.97;5043246;28;20029;-60
2022/12/26 10:19:39;;;;;;;2.08;1.10;;;;;;;18.63;48.26;101073.03;5045161;28;20116;-60
2022/12/26 10:22:17;;;;;;;2.53;1.20;;;;;;;18.65;48.08;101087.19;5030518;28;20049;-60
2022/12/26 10:24:43;;;;;;;2.22;1.08;;;;;;;18.64;48.44;101091.72;5039650;28;20108;-62
2022/12/26 10:27:15;;;;;;;2.97;1.60;;;;;;;18.64;48.31;101115.09;5045146;28;20034;-63
2022/12/26 10:29:47;;;;;;;2.45;1.35;;;;;;;18.64;48.08;101142.03;5038531;28;20060;-60
2022/12/26 10:32:21;;;;;;;2.40;1.13;;;;;;;18.68;48.31;101146.94;5043395;28;20088;-60
2022/12/26 10:34:48;;;;;;;2.10;1.08;;;;;;;18.71;48.10;101152.03;5054577;28;20032;-61
2022/12/26 10:37:30;;;;;;;2.90;1.40;;;;;;;18.74;48.37;101167.06;5047924;28;20017;-61
2022/12/26 10:40:11;;;;;;;1.95;1.52;;;;;;;18.79;48.56;101171.94;5042385;28;20798;-62
2022/12/26 10:42:41;;;;;;;1.75;1.33;;;;;;;18.80;48.40;101192.50;5043326;28;20028;-61
2022/12/26 10:45:18;;;;;;;2.60;1.35;;;;;;;18.80;48.55;101196.03;5042870;28;20026;-62
2022/12/26 10:47:46;;;;;;;2.03;1.10;;;;;;;18.82;48.10;101190.47;5044934;28;20021;-61
2022/12/26 10:50:20;;;;;;;3.03;1.50;;;;;;;18.82;48.21;101195.84;5038585;28;20091;-62
2022/12/26 10:52:45;;;;;;;4.22;1.70;;;;;;;18.83;47.96;101213.72;5048281;28;20036;-62
2022/12/26 10:55:16;;;;;;;5.70;2.05;;;;;;;18.84;48.23;101207.34;5044641;28;20041;-61
2022/12/26 10:57:44;;;;;;;1.77;1.10;;;;;;;18.83;48.14;101211.88;5058735;28;20018;-62
2022/12/26 11:00:17;;;;;;;2.17;1.30;;;;;;;18.83;48.04;101216.44;5042541;28;20048;-62
2022/12/26 11:02:43;;;;;;;2.55;1.20;;;;;;;18.82;47.94;101220.97;5043808;28;20028;-61
2022/12/26 11:05:11;;;;;;;5.70;1.35;;;;;;;18.84;48.15;101218.94;5043580;28;20053;-62
2022/12/26 11:07:49;;;;;;;2.67;1.40;;;;;;;18.87;47.84;101223.19;5043423;28;20029;-62
2022/12/26 11:10:21;;;;;;;1.52;1.10;;;;;;;18.86;47.79;101229.56;5051913;28;20038;-61
2022/12/26 11:12:50;;;;;;;3.65;1.45;;;;;;;18.86;47.75;101235.81;5039886;28;20044;-64
2022/12/26 11:15:30;;;;;;;3.22;1.40;;;;;;;18.87;47.87;101248.28;5042859;28;20030;-62
2022/12/26 11:18:17;;;;;;;2.15;1.02;;;;;;;18.86;48.11;101243.03;5043158;28;20037;-61
2022/12/26 11:20:43;;;;;;;2.47;1.20;;;;;;;18.86;48.07;101243.03;5026085;28;20025;-62
2022/12/26 11:23:19;;;;;;;1.85;1.17;;;;;;;18.86;47.98;101234.94;5040483;28;20028;-62
2022/12/26 11:25:51;;;;;;;7.00;2.08;;;;;;;18.85;48.06;101234.09;5034389;28;20108;-62
2022/12/26 11:28:26;;;;;;;2.42;1.15;;;;;;;18.85;47.94;101244.03;5044549;28;20021;-62
2022/12/26 11:30:52;;;;;;;2.67;1.20;;;;;;;18.84;47.60;101248.59;5043450;28;20025;-62
2022/12/26 11:33:23;;;;;;;1.50;1.10;;;;;;;18.85;47.63;101252.13;5042135;28;20035;-62
2022/12/26 11:36:10;;;;;;;4.97;1.50;;;;;;;18.83;47.73;101249.59;5043960;28;20075;-62
2022/12/26 11:39:03;;;;;;;3.65;1.30;;;;;;;18.86;47.91;101260.06;5044018;28;20129;-62
2022/12/26 11:41:32;;;;;;;2.67;1.60;;;;;;;18.86;47.65;101257.38;5041202;28;20045;-62
2022/12/26 11:44:13;;;;;;;2.28;1.08;;;;;;;18.87;47.67;101260.91;5043169;28;20025;-62
2022/12/26 11:46:59;;;;;;;3.60;1.55;;;;;;;18.86;47.66;101259.19;5042874;28;20025;-62
2022/12/26 11:49:33;;;;;;;2.30;1.35;;;;;;;18.87;47.35;101266.28;5043384;28;20049;-62
2022/12/26 11:52:02;;;;;;;3.88;1.40;;;;;;;18.86;47.49;101265.44;5042638;28;20031;-62
2022/12/26 11:54:36;;;;;;;1.75;1.10;;;;;;;18.85;47.43;101277.22;5044005;28;20112;-62
2022/12/26 11:57:02;;;;;;;1.45;1.00;;;;;;;18.85;47.30;101269.13;5042356;28;20021;-62
2022/12/26 11:59:28;;;;;;;3.17;1.42;;;;;;;18.87;47.23;101277.06;5042952;28;20040;-62
2022/12/26 12:02:23;;;;;;;2.33;1.30;;;;;;;18.84;47.26;101275.53;5043243;28;20025;-62
2022/12/26 12:04:50;;;;;;;3.17;1.70;;;;;;;18.86;47.33;101278.91;5042523;28;20048;-62
2022/12/26 12:07:15;;;;;;;2.15;1.00;;;;;;;18.86;47.23;101278.91;5059060;28;20027;-62
2022/12/26 12:10:19;;;;;;;4.78;1.65;;;;;;;18.86;47.33;101289.69;5042428;28;20021;-61
2022/12/26 12:13:00;;;;;;;1.15;1.00;;;;;;;18.86;47.30;101297.78;5043706;28;20089;-61
2022/12/26 12:15:33;;;;;;;3.63;1.33;;;;;;;18.86;47.08;101302.28;5043039;28;20080;-62
2022/12/26 12:18:11;;;;;;;2.45;1.50;;;;;;;18.87;47.29;101302.16;5044865;28;20362;-62
2022/12/26 12:21:02;;;;;;;3.10;1.30;;;;;;;18.88;46.86;101297.59;5048511;28;20505;-62
2022/12/26 12:24:13;;;;;;;2.67;1.10;;;;;;;18.87;47.12;101302.16;5036311;28;20033;-62
2022/12/26 12:26:43;;;;;;;1.98;1.35;;;;;;;18.88;47.06;101309.22;5048587;28;20022;-61
2022/12/26 12:29:38;;;;;;;2.75;1.23;;;;;;;18.89;47.08;101302.81;5048435;28;20036;-62
2022/12/26 12:32:14;;;;;;;2.28;1.00;;;;;;;18.88;47.04;101306.53;5037455;28;20025;-62
2022/12/26 12:34:53;;;;;;;3.25;1.55;;;;;;;18.89;47.01;101310.91;5065662;28;20067;-62
2022/12/26 12:37:41;;;;;;;2.45;1.10;;;;;;;18.90;46.54;101314.44;5049147;28;20025;-62
2022/12/26 12:40:26;;;;;;;2.95;1.13;;;;;;;18.79;46.53;101294.00;5048804;28;20025;-62
2022/12/26 12:43:15;;;;;;;1.67;1.00;;;;;;;18.89;46.79;101307.38;5050266;28;20035;-62
2022/12/26 12:45:48;;;;;;;1.95;1.10;;;;;;;18.89;46.58;101310.91;5036750;28;20017;-62
2022/12/26 12:48:42;;;;;;;2.55;1.13;;;;;;;18.88;46.57;101311.06;5049448;28;20042;-62
2022/12/26 12:51:43;;;;;;;2.08;1.02;;;;;;;18.87;46.51;101317.47;5043654;28;20033;-62
2022/12/26 12:54:15;;;;;;;1.88;1.30;;;;;;;18.86;46.60;101319.34;5036832;28;20052;-62
2022/12/26 12:56:48;;;;;;;2.03;1.00;;;;;;;18.86;46.80;101311.25;5048842;28;20036;-62
2022/12/26 12:59:39;;;;;;;2.20;1.08;;;;;;;18.87;46.75;101321.00;5035942;28;20056;-62
2022/12/26 13:02:41;;;;;;;1.98;1.10;;;;;;;18.84;46.65;101320.47;5048684;28;20021;-62
2022/12/26 13:05:27;;;;;;;2.13;1.02;;;;;;;18.79;46.79;101310.19;5049165;28;20091;-62
2022/12/26 13:08:20;;;;;;;1.92;1.00;;;;;;;18.85;46.67;101319.47;5036269;28;20029;-62
2022/12/26 13:10:49;;;;;;;2.72;1.02;;;;;;;18.85;46.49;101322.16;5049565;28;20021;-62
2022/12/26 13:13:33;;;;;;;2.83;1.10;;;;;;;18.84;46.82;101329.41;5048206;28;20048;-62
2022/12/26 13:16:26;;;;;;;1.83;1.02;;;;;;;18.85;46.82;101328.41;5047797;28;20088;-62
2022/12/26 13:18:58;;;;;;;2.33;1.10;;;;;;;18.86;46.44;101335.50;5044903;28;20037;-62
2022/12/26 13:21:24;;;;;;;1.65;0.88;;;;;;;18.86;46.62;101340.88;5047632;28;20021;-62
2022/12/26 13:26:40;;;;;;;;;;;;;;;18.87;46.37;101337.19;5049882;28;20124;-62
2022/12/26 13:29:38;;;;;;;2.50;1.10;;;;;;;18.86;46.48;101343.56;5047082;28;19913;-62
2022/12/26 13:32:14;;;;;;;2.35;1.23;;;;;;;18.80;46.35;101341.50;5031321;28;20041;-62
2022/12/26 13:34:42;;;;;;;1.15;0.75;;;;;;;18.87;46.31;101353.34;5044890;28;20029;-62
2022/12/26 13:37:36;;;;;;;1.85;0.95;;;;;;;18.87;46.29;101358.72;5046148;28;20017;-62
2022/12/26 13:40:05;;;;;;;1.85;1.42;;;;;;;18.87;46.41;101364.13;5045975;28;20029;-62
2022/12/26 13:45:34;;;;;;;1.40;0.90;;;;;;;18.86;46.17;101359.75;5045572;28;19948;-62
2022/12/26 13:48:00;;;;;;;1.83;1.05;;;;;;;18.85;46.41;101358.03;5046265;28;20021;-62
2022/12/26 13:50:48;;;;;;;1.50;1.10;;;;;;;18.86;46.25;101362.44;5045354;28;20037;-62
2022/12/26 13:53:23;;;;;;;2.25;1.08;;;;;;;18.86;46.23;101364.25;5045964;28;20018;-62
2022/12/26 13:55:49;;;;;;;3.00;1.00;;;;;;;18.85;46.29;101359.88;5032539;28;20037;-62